sensor_id;sensor_type;location;lat;lon;timestamp;P1;durP1;ratioP1;P2;durP2;ratioP2
57155;SDS011;73771;59.928;10.682;2024-01-27T00:00:30;1.40;;;1.30;;
57155;SDS011;73771;59.928;10.682;2024-01-27T00:02:56;1.52;;;1.30;;
57155;SDS011;73771;59.928;10.682;2024-01-27T00:05:22;3.00;;;1.70;;
57155;SDS011;73771;59.928;10.682;2024-01-27T00:07:48;1.70;;;1.35;;
57155;SDS011;73771;59.928;10.682;2024-01-27T00:10:14;2.20;;;1.35;;
57155;SDS011;73771;59.928;10.682;2024-01-27T00:12:40;1.75;;;1.35;;
57155;SDS011;73771;59.928;10.682;2024-01-27T00:15:07;1.52;;;1.30;;
57155;SDS011;73771;59.928;10.682;2024-01-27T00:17:34;1.55;;;1.40;;
57155;SDS011;73771;59.928;10.682;2024-01-27T00:20:01;1.65;;;1.35;;
57155;SDS011;73771;59.928;10.682;2024-01-27T00:22:27;2.10;;;1.33;;
57155;SDS011;73771;59.928;10.682;2024-01-27T00:24:53;1.50;;;1.40;;
57155;SDS011;73771;59.928;10.682;2024-01-27T00:27:19;1.45;;;1.33;;
57155;SDS011;73771;59.928;10.682;2024-01-27T00:29:45;2.60;;;1.50;;
57155;SDS011;73771;59.928;10.682;2024-01-27T00:32:12;1.38;;;1.27;;
57155;SDS011;73771;59.928;10.682;2024-01-27T00:34:38;1.15;;;0.80;;
57155;SDS011;73771;59.928;10.682;2024-01-27T00:37:04;0.95;;;0.95;;
57155;SDS011;73771;59.928;10.682;2024-01-27T00:39:31;1.30;;;1.20;;
57155;SDS011;73771;59.928;10.682;2024-01-27T00:41:58;1.40;;;1.17;;
57155;SDS011;73771;59.928;10.682;2024-01-27T00:44:24;1.52;;;1.10;;
57155;SDS011;73771;59.928;10.682;2024-01-27T00:46:50;1.98;;;1.48;;
57155;SDS011;73771;59.928;10.682;2024-01-27T00:49:16;1.30;;;1.20;;
57155;SDS011;73771;59.928;10.682;2024-01-27T00:51:43;1.50;;;1.20;;
57155;SDS011;73771;59.928;10.682;2024-01-27T00:54:09;1.23;;;0.90;;
57155;SDS011;73771;59.928;10.682;2024-01-27T00:56:35;1.02;;;0.93;;
57155;SDS011;73771;59.928;10.682;2024-01-27T00:59:01;1.38;;;1.27;;
57155;SDS011;73771;59.928;10.682;2024-01-27T01:01:27;0.63;;;0.63;;
57155;SDS011;73771;59.928;10.682;2024-01-27T01:03:54;1.35;;;1.13;;
57155;SDS011;73771;59.928;10.682;2024-01-27T01:06:20;1.20;;;0.90;;
57155;SDS011;73771;59.928;10.682;2024-01-27T01:08:46;1.05;;;0.93;;
57155;SDS011;73771;59.928;10.682;2024-01-27T01:11:12;1.55;;;0.88;;
57155;SDS011;73771;59.928;10.682;2024-01-27T01:13:39;1.45;;;1.08;;
57155;SDS011;73771;59.928;10.682;2024-01-27T01:16:06;3.25;;;1.10;;
57155;SDS011;73771;59.928;10.682;2024-01-27T01:18:33;1.35;;;1.15;;
57155;SDS011;73771;59.928;10.682;2024-01-27T01:20:59;0.95;;;0.88;;
57155;SDS011;73771;59.928;10.682;2024-01-27T01:23:25;1.15;;;1.05;;
57155;SDS011;73771;59.928;10.682;2024-01-27T01:25:51;1.17;;;0.80;;
57155;SDS011;73771;59.928;10.682;2024-01-27T01:28:17;1.02;;;0.80;;
57155;SDS011;73771;59.928;10.682;2024-01-27T01:30:43;0.90;;;0.73;;
57155;SDS011;73771;59.928;10.682;2024-01-27T01:33:10;1.23;;;0.90;;
57155;SDS011;73771;59.928;10.682;2024-01-27T01:35:36;1.27;;;1.10;;
57155;SDS011;73771;59.928;10.682;2024-01-27T01:38:03;0.75;;;0.60;;
57155;SDS011;73771;59.928;10.682;2024-01-27T01:40:29;0.65;;;0.65;;
57155;SDS011;73771;59.928;10.682;2024-01-27T01:42:55;0.93;;;0.80;;
57155;SDS011;73771;59.928;10.682;2024-01-27T01:45:21;1.15;;;0.77;;
57155;SDS011;73771;59.928;10.682;2024-01-27T01:47:47;0.70;;;0.70;;
57155;SDS011;73771;59.928;10.682;2024-01-27T01:50:13;1.20;;;0.50;;
57155;SDS011;73771;59.928;10.682;2024-01-27T01:52:40;1.02;;;0.93;;
57155;SDS011;73771;59.928;10.682;2024-01-27T01:55:06;1.15;;;0.95;;
57155;SDS011;73771;59.928;10.682;2024-01-27T01:57:33;1.00;;;0.88;;
57155;SDS011;73771;59.928;10.682;2024-01-27T01:59:59;1.15;;;0.75;;
57155;SDS011;73771;59.928;10.682;2024-01-27T02:02:25;1.48;;;0.60;;
57155;SDS011;73771;59.928;10.682;2024-01-27T02:04:51;0.60;;;0.60;;
57155;SDS011;73771;59.928;10.682;2024-01-27T02:07:17;2.50;;;0.88;;
57155;SDS011;73771;59.928;10.682;2024-01-27T02:09:43;1.23;;;0.68;;
57155;SDS011;73771;59.928;10.682;2024-01-27T02:12:10;1.17;;;0.82;;
57155;SDS011;73771;59.928;10.682;2024-01-27T02:14:36;0.82;;;0.63;;
57155;SDS011;73771;59.928;10.682;2024-01-27T02:17:02;1.33;;;1.02;;
57155;SDS011;73771;59.928;10.682;2024-01-27T02:19:29;0.95;;;0.70;;
57155;SDS011;73771;59.928;10.682;2024-01-27T02:21:55;0.80;;;0.60;;
57155;SDS011;73771;59.928;10.682;2024-01-27T02:24:21;1.95;;;0.68;;
57155;SDS011;73771;59.928;10.682;2024-01-27T02:26:47;0.73;;;0.70;;
57155;SDS011;73771;59.928;10.682;2024-01-27T02:29:13;0.80;;;0.68;;
57155;SDS011;73771;59.928;10.682;2024-01-27T02:31:40;2.65;;;0.60;;
57155;SDS011;73771;59.928;10.682;2024-01-27T02:34:06;0.98;;;0.88;;
57155;SDS011;73771;59.928;10.682;2024-01-27T02:36:32;1.20;;;0.70;;
57155;SDS011;73771;59.928;10.682;2024-01-27T02:38:58;0.70;;;0.50;;
57155;SDS011;73771;59.928;10.682;2024-01-27T02:41:24;0.60;;;0.60;;
57155;SDS011;73771;59.928;10.682;2024-01-27T02:43:50;1.90;;;0.57;;
57155;SDS011;73771;59.928;10.682;2024-01-27T02:46:16;1.33;;;0.70;;
57155;SDS011;73771;59.928;10.682;2024-01-27T02:48:44;0.73;;;0.70;;
57155;SDS011;73771;59.928;10.682;2024-01-27T02:51:10;0.55;;;0.50;;
57155;SDS011;73771;59.928;10.682;2024-01-27T02:53:36;1.20;;;0.70;;
57155;SDS011;73771;59.928;10.682;2024-01-27T02:56:05;0.73;;;0.65;;
57155;SDS011;73771;59.928;10.682;2024-01-27T02:58:32;2.35;;;0.70;;
57155;SDS011;73771;59.928;10.682;2024-01-27T03:03:50;1.17;;;0.82;;
57155;SDS011;73771;59.928;10.682;2024-01-27T03:06:16;1.35;;;0.52;;
57155;SDS011;73771;59.928;10.682;2024-01-27T03:08:42;0.63;;;0.60;;
57155;SDS011;73771;59.928;10.682;2024-01-27T03:11:08;0.98;;;0.80;;
57155;SDS011;73771;59.928;10.682;2024-01-27T03:13:34;0.60;;;0.60;;
57155;SDS011;73771;59.928;10.682;2024-01-27T03:16:00;0.75;;;0.60;;
57155;SDS011;73771;59.928;10.682;2024-01-27T03:18:26;1.23;;;0.60;;
57155;SDS011;73771;59.928;10.682;2024-01-27T03:20:53;0.60;;;0.60;;
57155;SDS011;73771;59.928;10.682;2024-01-27T03:23:19;0.82;;;0.45;;
57155;SDS011;73771;59.928;10.682;2024-01-27T03:25:45;1.05;;;0.77;;
57155;SDS011;73771;59.928;10.682;2024-01-27T03:28:11;1.10;;;0.70;;
57155;SDS011;73771;59.928;10.682;2024-01-27T03:30:37;0.70;;;0.50;;
57155;SDS011;73771;59.928;10.682;2024-01-27T03:33:03;0.95;;;0.57;;
57155;SDS011;73771;59.928;10.682;2024-01-27T03:35:31;0.50;;;0.50;;
57155;SDS011;73771;59.928;10.682;2024-01-27T03:37:57;0.63;;;0.63;;
57155;SDS011;73771;59.928;10.682;2024-01-27T03:40:23;1.25;;;0.60;;
57155;SDS011;73771;59.928;10.682;2024-01-27T03:42:49;0.50;;;0.40;;
57155;SDS011;73771;59.928;10.682;2024-01-27T03:45:15;0.35;;;0.35;;
57155;SDS011;73771;59.928;10.682;2024-01-27T03:47:41;1.23;;;0.70;;
57155;SDS011;73771;59.928;10.682;2024-01-27T03:50:08;0.82;;;0.40;;
57155;SDS011;73771;59.928;10.682;2024-01-27T03:52:34;1.33;;;0.60;;
57155;SDS011;73771;59.928;10.682;2024-01-27T03:55:00;0.65;;;0.60;;
57155;SDS011;73771;59.928;10.682;2024-01-27T03:57:26;0.95;;;0.50;;
57155;SDS011;73771;59.928;10.682;2024-01-27T03:59:53;0.40;;;0.40;;
57155;SDS011;73771;59.928;10.682;2024-01-27T04:02:19;1.17;;;0.60;;
57155;SDS011;73771;59.928;10.682;2024-01-27T04:04:45;0.30;;;0.30;;
57155;SDS011;73771;59.928;10.682;2024-01-27T04:07:11;0.30;;;0.30;;
57155;SDS011;73771;59.928;10.682;2024-01-27T04:09:37;0.68;;;0.47;;
57155;SDS011;73771;59.928;10.682;2024-01-27T04:12:03;0.70;;;0.52;;
57155;SDS011;73771;59.928;10.682;2024-01-27T04:14:29;0.50;;;0.47;;
57155;SDS011;73771;59.928;10.682;2024-01-27T04:16:55;0.47;;;0.30;;
57155;SDS011;73771;59.928;10.682;2024-01-27T04:19:22;0.60;;;0.40;;
57155;SDS011;73771;59.928;10.682;2024-01-27T04:21:48;0.90;;;0.30;;
57155;SDS011;73771;59.928;10.682;2024-01-27T04:24:14;1.17;;;0.40;;
57155;SDS011;73771;59.928;10.682;2024-01-27T04:26:40;0.75;;;0.50;;
57155;SDS011;73771;59.928;10.682;2024-01-27T04:29:06;0.73;;;0.30;;
57155;SDS011;73771;59.928;10.682;2024-01-27T04:31:33;0.40;;;0.40;;
57155;SDS011;73771;59.928;10.682;2024-01-27T04:33:59;0.40;;;0.40;;
57155;SDS011;73771;59.928;10.682;2024-01-27T04:36:26;0.43;;;0.30;;
57155;SDS011;73771;59.928;10.682;2024-01-27T04:38:53;0.32;;;0.32;;
57155;SDS011;73771;59.928;10.682;2024-01-27T04:41:19;0.30;;;0.30;;
57155;SDS011;73771;59.928;10.682;2024-01-27T04:43:45;0.20;;;0.20;;
57155;SDS011;73771;59.928;10.682;2024-01-27T04:46:11;0.47;;;0.25;;
57155;SDS011;73771;59.928;10.682;2024-01-27T04:48:37;0.40;;;0.40;;
57155;SDS011;73771;59.928;10.682;2024-01-27T04:51:03;0.50;;;0.50;;
57155;SDS011;73771;59.928;10.682;2024-01-27T04:53:29;0.75;;;0.40;;
57155;SDS011;73771;59.928;10.682;2024-01-27T04:55:55;0.28;;;0.28;;
57155;SDS011;73771;59.928;10.682;2024-01-27T04:58:21;0.40;;;0.40;;
57155;SDS011;73771;59.928;10.682;2024-01-27T05:00:48;0.70;;;0.50;;
57155;SDS011;73771;59.928;10.682;2024-01-27T05:03:14;0.38;;;0.38;;
57155;SDS011;73771;59.928;10.682;2024-01-27T05:05:41;1.13;;;0.35;;
57155;SDS011;73771;59.928;10.682;2024-01-27T05:08:07;0.50;;;0.40;;
57155;SDS011;73771;59.928;10.682;2024-01-27T05:10:34;0.52;;;0.40;;
57155;SDS011;73771;59.928;10.682;2024-01-27T05:13:00;0.50;;;0.40;;
57155;SDS011;73771;59.928;10.682;2024-01-27T05:15:26;0.22;;;0.20;;
57155;SDS011;73771;59.928;10.682;2024-01-27T05:17:52;0.47;;;0.30;;
57155;SDS011;73771;59.928;10.682;2024-01-27T05:20:18;0.20;;;0.20;;
57155;SDS011;73771;59.928;10.682;2024-01-27T05:22:44;0.40;;;0.30;;
57155;SDS011;73771;59.928;10.682;2024-01-27T05:25:11;0.70;;;0.30;;
57155;SDS011;73771;59.928;10.682;2024-01-27T05:27:37;0.10;;;0.10;;
57155;SDS011;73771;59.928;10.682;2024-01-27T05:30:04;0.68;;;0.20;;
57155;SDS011;73771;59.928;10.682;2024-01-27T05:32:30;0.20;;;0.20;;
57155;SDS011;73771;59.928;10.682;2024-01-27T05:34:56;0.20;;;0.20;;
57155;SDS011;73771;59.928;10.682;2024-01-27T05:37:23;0.22;;;0.22;;
57155;SDS011;73771;59.928;10.682;2024-01-27T05:39:49;0.98;;;0.52;;
57155;SDS011;73771;59.928;10.682;2024-01-27T05:42:15;1.92;;;0.75;;
57155;SDS011;73771;59.928;10.682;2024-01-27T05:44:41;0.22;;;0.15;;
57155;SDS011;73771;59.928;10.682;2024-01-27T05:47:07;0.20;;;0.20;;
57155;SDS011;73771;59.928;10.682;2024-01-27T05:49:36;0.32;;;0.32;;
57155;SDS011;73771;59.928;10.682;2024-01-27T05:52:02;1.02;;;0.30;;
57155;SDS011;73771;59.928;10.682;2024-01-27T05:54:28;0.30;;;0.20;;
57155;SDS011;73771;59.928;10.682;2024-01-27T05:56:54;0.75;;;0.20;;
57155;SDS011;73771;59.928;10.682;2024-01-27T05:59:21;0.20;;;0.20;;
57155;SDS011;73771;59.928;10.682;2024-01-27T06:01:47;0.85;;;0.20;;
57155;SDS011;73771;59.928;10.682;2024-01-27T06:04:13;0.10;;;0.10;;
57155;SDS011;73771;59.928;10.682;2024-01-27T06:06:39;0.30;;;0.30;;
57155;SDS011;73771;59.928;10.682;2024-01-27T06:09:05;0.20;;;0.20;;
57155;SDS011;73771;59.928;10.682;2024-01-27T06:11:36;1.05;;;0.20;;
57155;SDS011;73771;59.928;10.682;2024-01-27T06:14:02;0.70;;;0.70;;
57155;SDS011;73771;59.928;10.682;2024-01-27T06:16:28;0.30;;;0.22;;
57155;SDS011;73771;59.928;10.682;2024-01-27T06:18:54;1.10;;;0.40;;
57155;SDS011;73771;59.928;10.682;2024-01-27T06:21:21;0.38;;;0.20;;
57155;SDS011;73771;59.928;10.682;2024-01-27T06:23:47;0.50;;;0.40;;
57155;SDS011;73771;59.928;10.682;2024-01-27T06:26:13;1.27;;;0.45;;
57155;SDS011;73771;59.928;10.682;2024-01-27T06:28:40;0.25;;;0.20;;
57155;SDS011;73771;59.928;10.682;2024-01-27T06:31:06;0.98;;;0.43;;
57155;SDS011;73771;59.928;10.682;2024-01-27T06:33:34;0.70;;;0.20;;
57155;SDS011;73771;59.928;10.682;2024-01-27T06:36:00;2.05;;;0.13;;
57155;SDS011;73771;59.928;10.682;2024-01-27T06:38:27;0.45;;;0.40;;
57155;SDS011;73771;59.928;10.682;2024-01-27T06:40:53;0.22;;;0.22;;
57155;SDS011;73771;59.928;10.682;2024-01-27T06:43:19;0.55;;;0.40;;
57155;SDS011;73771;59.928;10.682;2024-01-27T06:45:45;0.55;;;0.30;;
57155;SDS011;73771;59.928;10.682;2024-01-27T06:48:12;0.32;;;0.20;;
57155;SDS011;73771;59.928;10.682;2024-01-27T06:50:38;0.32;;;0.20;;
57155;SDS011;73771;59.928;10.682;2024-01-27T06:53:04;0.50;;;0.20;;
57155;SDS011;73771;59.928;10.682;2024-01-27T06:55:30;0.82;;;0.30;;
57155;SDS011;73771;59.928;10.682;2024-01-27T06:57:56;0.65;;;0.40;;
57155;SDS011;73771;59.928;10.682;2024-01-27T07:00:22;0.45;;;0.38;;
57155;SDS011;73771;59.928;10.682;2024-01-27T07:02:48;0.70;;;0.20;;
57155;SDS011;73771;59.928;10.682;2024-01-27T07:05:14;0.55;;;0.47;;
57155;SDS011;73771;59.928;10.682;2024-01-27T07:07:40;0.35;;;0.20;;
57155;SDS011;73771;59.928;10.682;2024-01-27T07:10:07;0.45;;;0.38;;
57155;SDS011;73771;59.928;10.682;2024-01-27T07:12:33;0.47;;;0.30;;
57155;SDS011;73771;59.928;10.682;2024-01-27T07:14:59;0.20;;;0.20;;
57155;SDS011;73771;59.928;10.682;2024-01-27T07:17:26;0.30;;;0.30;;
57155;SDS011;73771;59.928;10.682;2024-01-27T07:19:52;0.45;;;0.45;;
57155;SDS011;73771;59.928;10.682;2024-01-27T07:22:18;1.52;;;0.40;;
57155;SDS011;73771;59.928;10.682;2024-01-27T07:24:44;0.68;;;0.60;;
57155;SDS011;73771;59.928;10.682;2024-01-27T07:27:13;0.68;;;0.40;;
57155;SDS011;73771;59.928;10.682;2024-01-27T07:29:40;1.33;;;0.70;;
57155;SDS011;73771;59.928;10.682;2024-01-27T07:32:06;0.45;;;0.40;;
57155;SDS011;73771;59.928;10.682;2024-01-27T07:34:44;2.40;;;0.50;;
57155;SDS011;73771;59.928;10.682;2024-01-27T07:37:10;0.75;;;0.45;;
57155;SDS011;73771;59.928;10.682;2024-01-27T07:39:36;1.10;;;0.55;;
57155;SDS011;73771;59.928;10.682;2024-01-27T07:42:03;1.63;;;0.50;;
57155;SDS011;73771;59.928;10.682;2024-01-27T07:44:29;1.65;;;0.88;;
57155;SDS011;73771;59.928;10.682;2024-01-27T07:46:55;0.47;;;0.47;;
57155;SDS011;73771;59.928;10.682;2024-01-27T07:49:21;0.50;;;0.50;;
57155;SDS011;73771;59.928;10.682;2024-01-27T07:51:47;0.52;;;0.50;;
57155;SDS011;73771;59.928;10.682;2024-01-27T07:54:14;2.08;;;0.73;;
57155;SDS011;73771;59.928;10.682;2024-01-27T07:56:40;0.85;;;0.63;;
57155;SDS011;73771;59.928;10.682;2024-01-27T07:59:06;1.30;;;1.05;;
57155;SDS011;73771;59.928;10.682;2024-01-27T08:01:39;1.65;;;1.08;;
57155;SDS011;73771;59.928;10.682;2024-01-27T08:04:05;1.45;;;0.85;;
57155;SDS011;73771;59.928;10.682;2024-01-27T08:06:31;0.70;;;0.70;;
57155;SDS011;73771;59.928;10.682;2024-01-27T08:08:57;2.05;;;0.90;;
57155;SDS011;73771;59.928;10.682;2024-01-27T08:11:24;1.98;;;0.90;;
57155;SDS011;73771;59.928;10.682;2024-01-27T08:13:50;0.60;;;0.60;;
57155;SDS011;73771;59.928;10.682;2024-01-27T08:16:17;1.30;;;0.80;;
57155;SDS011;73771;59.928;10.682;2024-01-27T08:18:43;4.88;;;0.90;;
57155;SDS011;73771;59.928;10.682;2024-01-27T08:21:10;4.28;;;1.05;;
57155;SDS011;73771;59.928;10.682;2024-01-27T08:23:40;3.17;;;0.98;;
57155;SDS011;73771;59.928;10.682;2024-01-27T08:26:07;1.35;;;1.10;;
57155;SDS011;73771;59.928;10.682;2024-01-27T08:28:33;2.35;;;0.80;;
57155;SDS011;73771;59.928;10.682;2024-01-27T08:30:59;1.98;;;1.05;;
57155;SDS011;73771;59.928;10.682;2024-01-27T08:33:26;3.22;;;1.23;;
57155;SDS011;73771;59.928;10.682;2024-01-27T08:35:53;2.83;;;1.30;;
57155;SDS011;73771;59.928;10.682;2024-01-27T08:38:19;2.00;;;0.98;;
57155;SDS011;73771;59.928;10.682;2024-01-27T08:40:45;1.88;;;1.30;;
57155;SDS011;73771;59.928;10.682;2024-01-27T08:43:11;4.90;;;1.63;;
57155;SDS011;73771;59.928;10.682;2024-01-27T08:45:37;2.92;;;1.17;;
57155;SDS011;73771;59.928;10.682;2024-01-27T08:48:05;4.35;;;1.42;;
57155;SDS011;73771;59.928;10.682;2024-01-27T08:50:31;2.45;;;1.50;;
57155;SDS011;73771;59.928;10.682;2024-01-27T08:52:57;4.18;;;1.17;;
57155;SDS011;73771;59.928;10.682;2024-01-27T08:55:23;1.73;;;1.05;;
57155;SDS011;73771;59.928;10.682;2024-01-27T08:57:50;2.25;;;1.20;;
57155;SDS011;73771;59.928;10.682;2024-01-27T09:00:16;4.57;;;1.40;;
57155;SDS011;73771;59.928;10.682;2024-01-27T09:02:42;4.95;;;1.95;;
57155;SDS011;73771;59.928;10.682;2024-01-27T09:05:09;4.03;;;1.40;;
57155;SDS011;73771;59.928;10.682;2024-01-27T09:07:35;4.53;;;2.10;;
57155;SDS011;73771;59.928;10.682;2024-01-27T09:10:01;2.83;;;1.80;;
57155;SDS011;73771;59.928;10.682;2024-01-27T09:12:27;2.60;;;1.88;;
57155;SDS011;73771;59.928;10.682;2024-01-27T09:14:53;2.58;;;1.85;;
57155;SDS011;73771;59.928;10.682;2024-01-27T09:17:22;2.75;;;2.00;;
57155;SDS011;73771;59.928;10.682;2024-01-27T09:19:48;3.95;;;1.60;;
57155;SDS011;73771;59.928;10.682;2024-01-27T09:22:16;2.85;;;1.60;;
57155;SDS011;73771;59.928;10.682;2024-01-27T09:24:42;1.92;;;1.70;;
57155;SDS011;73771;59.928;10.682;2024-01-27T09:27:08;2.95;;;1.77;;
57155;SDS011;73771;59.928;10.682;2024-01-27T09:29:34;4.13;;;2.50;;
57155;SDS011;73771;59.928;10.682;2024-01-27T09:32:00;3.30;;;1.70;;
57155;SDS011;73771;59.928;10.682;2024-01-27T09:34:26;4.65;;;3.22;;
57155;SDS011;73771;59.928;10.682;2024-01-27T09:36:52;10.02;;;5.97;;
57155;SDS011;73771;59.928;10.682;2024-01-27T09:39:18;5.13;;;2.83;;
57155;SDS011;73771;59.928;10.682;2024-01-27T09:41:44;5.90;;;3.15;;
57155;SDS011;73771;59.928;10.682;2024-01-27T09:44:12;9.90;;;3.58;;
57155;SDS011;73771;59.928;10.682;2024-01-27T09:46:38;5.75;;;2.88;;
57155;SDS011;73771;59.928;10.682;2024-01-27T09:49:04;6.68;;;3.50;;
57155;SDS011;73771;59.928;10.682;2024-01-27T09:51:30;6.03;;;3.13;;
57155;SDS011;73771;59.928;10.682;2024-01-27T09:53:57;8.02;;;3.40;;
57155;SDS011;73771;59.928;10.682;2024-01-27T09:56:23;4.32;;;3.30;;
57155;SDS011;73771;59.928;10.682;2024-01-27T09:58:50;5.28;;;3.17;;
57155;SDS011;73771;59.928;10.682;2024-01-27T10:01:20;10.85;;;4.45;;
57155;SDS011;73771;59.928;10.682;2024-01-27T10:03:47;3.80;;;2.92;;
57155;SDS011;73771;59.928;10.682;2024-01-27T10:06:13;4.60;;;2.97;;
57155;SDS011;73771;59.928;10.682;2024-01-27T10:08:40;7.15;;;2.88;;
57155;SDS011;73771;59.928;10.682;2024-01-27T10:11:06;6.32;;;3.38;;
57155;SDS011;73771;59.928;10.682;2024-01-27T10:13:33;4.97;;;2.90;;
57155;SDS011;73771;59.928;10.682;2024-01-27T10:16:02;5.45;;;3.28;;
57155;SDS011;73771;59.928;10.682;2024-01-27T10:18:29;3.95;;;2.92;;
57155;SDS011;73771;59.928;10.682;2024-01-27T10:20:55;6.80;;;3.10;;
57155;SDS011;73771;59.928;10.682;2024-01-27T10:23:21;6.13;;;2.88;;
57155;SDS011;73771;59.928;10.682;2024-01-27T10:25:48;5.57;;;3.28;;
57155;SDS011;73771;59.928;10.682;2024-01-27T10:28:14;5.15;;;3.20;;
57155;SDS011;73771;59.928;10.682;2024-01-27T10:30:40;5.78;;;2.95;;
57155;SDS011;73771;59.928;10.682;2024-01-27T10:33:10;3.53;;;2.72;;
57155;SDS011;73771;59.928;10.682;2024-01-27T10:35:38;5.38;;;3.00;;
57155;SDS011;73771;59.928;10.682;2024-01-27T10:38:04;5.28;;;2.67;;
57155;SDS011;73771;59.928;10.682;2024-01-27T10:40:30;4.57;;;2.85;;
57155;SDS011;73771;59.928;10.682;2024-01-27T10:43:01;5.20;;;2.67;;
57155;SDS011;73771;59.928;10.682;2024-01-27T10:48:02;5.22;;;2.88;;
57155;SDS011;73771;59.928;10.682;2024-01-27T10:50:28;5.10;;;2.75;;
57155;SDS011;73771;59.928;10.682;2024-01-27T10:52:56;3.90;;;2.40;;
57155;SDS011;73771;59.928;10.682;2024-01-27T10:55:24;4.63;;;2.88;;
57155;SDS011;73771;59.928;10.682;2024-01-27T10:57:50;3.25;;;2.50;;
57155;SDS011;73771;59.928;10.682;2024-01-27T11:00:18;3.63;;;2.08;;
57155;SDS011;73771;59.928;10.682;2024-01-27T11:02:44;8.88;;;2.85;;
57155;SDS011;73771;59.928;10.682;2024-01-27T11:05:11;3.40;;;2.28;;
57155;SDS011;73771;59.928;10.682;2024-01-27T11:07:38;4.03;;;2.35;;
57155;SDS011;73771;59.928;10.682;2024-01-27T11:10:05;2.78;;;2.17;;
57155;SDS011;73771;59.928;10.682;2024-01-27T11:12:32;4.57;;;2.60;;
57155;SDS011;73771;59.928;10.682;2024-01-27T11:14:59;3.63;;;2.10;;
57155;SDS011;73771;59.928;10.682;2024-01-27T11:17:25;3.45;;;2.25;;
57155;SDS011;73771;59.928;10.682;2024-01-27T11:19:51;3.90;;;2.63;;
57155;SDS011;73771;59.928;10.682;2024-01-27T11:22:24;3.65;;;1.98;;
57155;SDS011;73771;59.928;10.682;2024-01-27T11:27:39;2.35;;;1.70;;
57155;SDS011;73771;59.928;10.682;2024-01-27T11:30:06;3.78;;;2.03;;
57155;SDS011;73771;59.928;10.682;2024-01-27T11:32:49;2.95;;;2.17;;
57155;SDS011;73771;59.928;10.682;2024-01-27T11:35:17;3.58;;;2.13;;
57155;SDS011;73771;59.928;10.682;2024-01-27T11:37:43;3.22;;;1.90;;
57155;SDS011;73771;59.928;10.682;2024-01-27T11:40:09;10.00;;;2.47;;
57155;SDS011;73771;59.928;10.682;2024-01-27T11:42:35;4.97;;;2.30;;
57155;SDS011;73771;59.928;10.682;2024-01-27T11:45:01;3.05;;;2.10;;
57155;SDS011;73771;59.928;10.682;2024-01-27T11:47:28;8.05;;;1.77;;
57155;SDS011;73771;59.928;10.682;2024-01-27T11:49:55;3.05;;;2.10;;
57155;SDS011;73771;59.928;10.682;2024-01-27T11:52:23;3.50;;;2.20;;
57155;SDS011;73771;59.928;10.682;2024-01-27T11:54:55;1.98;;;1.70;;
57155;SDS011;73771;59.928;10.682;2024-01-27T11:57:21;2.40;;;1.65;;
57155;SDS011;73771;59.928;10.682;2024-01-27T11:59:47;2.30;;;1.80;;
57155;SDS011;73771;59.928;10.682;2024-01-27T12:02:14;3.22;;;1.55;;
57155;SDS011;73771;59.928;10.682;2024-01-27T12:04:40;4.20;;;2.17;;
57155;SDS011;73771;59.928;10.682;2024-01-27T12:07:06;6.10;;;1.90;;
57155;SDS011;73771;59.928;10.682;2024-01-27T12:09:32;4.18;;;1.70;;
57155;SDS011;73771;59.928;10.682;2024-01-27T12:11:58;2.20;;;1.60;;
57155;SDS011;73771;59.928;10.682;2024-01-27T12:14:25;4.10;;;1.58;;
57155;SDS011;73771;59.928;10.682;2024-01-27T12:16:51;5.30;;;1.70;;
57155;SDS011;73771;59.928;10.682;2024-01-27T12:19:18;3.78;;;1.50;;
57155;SDS011;73771;59.928;10.682;2024-01-27T12:21:48;3.90;;;1.80;;
57155;SDS011;73771;59.928;10.682;2024-01-27T12:24:17;7.93;;;1.90;;
57155;SDS011;73771;59.928;10.682;2024-01-27T12:26:44;6.00;;;2.22;;
57155;SDS011;73771;59.928;10.682;2024-01-27T12:29:11;2.78;;;1.60;;
57155;SDS011;73771;59.928;10.682;2024-01-27T12:31:37;2.55;;;1.45;;
57155;SDS011;73771;59.928;10.682;2024-01-27T12:34:03;2.22;;;1.40;;
57155;SDS011;73771;59.928;10.682;2024-01-27T12:36:29;4.20;;;2.03;;
57155;SDS011;73771;59.928;10.682;2024-01-27T12:38:57;2.35;;;1.45;;
57155;SDS011;73771;59.928;10.682;2024-01-27T12:41:24;5.07;;;1.33;;
57155;SDS011;73771;59.928;10.682;2024-01-27T12:43:51;5.05;;;1.23;;
57155;SDS011;73771;59.928;10.682;2024-01-27T12:46:17;2.17;;;1.45;;
57155;SDS011;73771;59.928;10.682;2024-01-27T12:48:44;4.90;;;1.15;;
57155;SDS011;73771;59.928;10.682;2024-01-27T12:51:10;4.03;;;1.30;;
57155;SDS011;73771;59.928;10.682;2024-01-27T12:53:38;2.40;;;1.55;;
57155;SDS011;73771;59.928;10.682;2024-01-27T12:56:07;3.55;;;1.77;;
57155;SDS011;73771;59.928;10.682;2024-01-27T12:58:33;4.07;;;1.50;;
57155;SDS011;73771;59.928;10.682;2024-01-27T13:00:59;2.60;;;1.50;;
57155;SDS011;73771;59.928;10.682;2024-01-27T13:03:26;2.47;;;1.20;;
57155;SDS011;73771;59.928;10.682;2024-01-27T13:05:53;5.15;;;1.45;;
57155;SDS011;73771;59.928;10.682;2024-01-27T13:08:19;2.17;;;1.25;;
57155;SDS011;73771;59.928;10.682;2024-01-27T13:10:45;3.40;;;1.30;;
57155;SDS011;73771;59.928;10.682;2024-01-27T13:13:12;1.42;;;1.20;;
57155;SDS011;73771;59.928;10.682;2024-01-27T13:15:38;2.20;;;1.40;;
57155;SDS011;73771;59.928;10.682;2024-01-27T13:18:04;1.92;;;1.30;;
57155;SDS011;73771;59.928;10.682;2024-01-27T13:20:31;1.40;;;1.02;;
57155;SDS011;73771;59.928;10.682;2024-01-27T13:22:58;3.05;;;1.67;;
57155;SDS011;73771;59.928;10.682;2024-01-27T13:25:24;2.03;;;1.08;;
57155;SDS011;73771;59.928;10.682;2024-01-27T13:27:50;2.95;;;1.38;;
57155;SDS011;73771;59.928;10.682;2024-01-27T13:30:16;3.55;;;1.50;;
57155;SDS011;73771;59.928;10.682;2024-01-27T13:32:43;2.95;;;1.52;;
57155;SDS011;73771;59.928;10.682;2024-01-27T13:35:09;1.33;;;1.08;;
57155;SDS011;73771;59.928;10.682;2024-01-27T13:37:35;2.15;;;1.02;;
57155;SDS011;73771;59.928;10.682;2024-01-27T13:40:03;3.35;;;1.35;;
57155;SDS011;73771;59.928;10.682;2024-01-27T13:42:30;5.55;;;1.30;;
57155;SDS011;73771;59.928;10.682;2024-01-27T13:44:57;3.13;;;1.40;;
57155;SDS011;73771;59.928;10.682;2024-01-27T13:47:23;2.33;;;1.35;;
57155;SDS011;73771;59.928;10.682;2024-01-27T13:49:49;5.35;;;1.80;;
57155;SDS011;73771;59.928;10.682;2024-01-27T13:52:15;2.97;;;1.60;;
57155;SDS011;73771;59.928;10.682;2024-01-27T13:54:41;4.85;;;1.30;;
57155;SDS011;73771;59.928;10.682;2024-01-27T13:57:07;0.88;;;0.80;;
57155;SDS011;73771;59.928;10.682;2024-01-27T13:59:35;2.58;;;1.00;;
57155;SDS011;73771;59.928;10.682;2024-01-27T14:02:01;2.88;;;1.10;;
57155;SDS011;73771;59.928;10.682;2024-01-27T14:04:27;2.85;;;1.70;;
57155;SDS011;73771;59.928;10.682;2024-01-27T14:06:54;3.13;;;1.42;;
57155;SDS011;73771;59.928;10.682;2024-01-27T14:09:21;7.57;;;2.45;;
57155;SDS011;73771;59.928;10.682;2024-01-27T14:11:47;3.63;;;1.95;;
57155;SDS011;73771;59.928;10.682;2024-01-27T14:14:13;3.30;;;1.58;;
57155;SDS011;73771;59.928;10.682;2024-01-27T14:16:39;4.13;;;1.55;;
57155;SDS011;73771;59.928;10.682;2024-01-27T14:19:06;2.78;;;1.10;;
57155;SDS011;73771;59.928;10.682;2024-01-27T14:21:32;1.67;;;1.20;;
57155;SDS011;73771;59.928;10.682;2024-01-27T14:23:59;3.08;;;1.08;;
57155;SDS011;73771;59.928;10.682;2024-01-27T14:26:30;6.47;;;1.55;;
57155;SDS011;73771;59.928;10.682;2024-01-27T14:28:56;5.53;;;1.80;;
57155;SDS011;73771;59.928;10.682;2024-01-27T14:31:23;5.65;;;1.40;;
57155;SDS011;73771;59.928;10.682;2024-01-27T14:33:49;6.32;;;1.70;;
57155;SDS011;73771;59.928;10.682;2024-01-27T14:36:15;3.60;;;1.75;;